Time;durP1;ratioP1;P1;durP2;ratioP2;P2;SDS_P1;SDS_P2;PMS_P1;PMS_P2;Temp;Humidity;BMP_temperature;BMP_pressure;BME280_temperature;BME280_humidity;BME280_pressure;Samples;Min_cycle;Max_cycle;Signal;HPM_P1;HPM_P2
2022/09/12 00:01:45;;;;;;;;;;;14.20;57.80;;;10.02;100.00;95619.47;4972124;28;19909;-50
2022/09/12 00:04:13;;;;;;;;;;;14.20;57.80;;;10.04;100.00;95622.66;4976824;28;20292;-49
2022/09/12 00:06:43;;;;;;;;;;;14.20;57.90;;;10.13;100.00;95620.31;4966491;28;19917;-54
2022/09/12 00:09:12;;;;;;;;;;;14.20;58.00;;;10.19;100.00;95613.94;4974415;28;19937;-51
2022/09/12 00:11:45;;;;;;;;;;;14.30;58.20;;;10.23;100.00;95614.22;4964855;28;19977;-51
2022/09/12 00:14:15;;;;;;;;;;;14.30;58.20;;;10.28;100.00;95614.25;4965709;28;19936;-48
2022/09/12 00:16:42;;;;;;;;;;;14.30;58.30;;;10.30;100.00;95618.25;4994169;28;19909;-49
2022/09/12 00:19:17;;;;;;;;;;;14.30;58.40;;;10.30;100.00;95609.47;4957685;28;19914;-49
2022/09/12 00:21:43;;;;;;;;;;;14.40;58.50;;;10.27;100.00;95612.66;4946248;28;20357;-47
2022/09/12 00:24:15;;;;;;;;;;;14.40;58.50;;;10.31;100.00;95621.72;4957019;28;20011;-53
2022/09/12 00:26:47;;;;;;;;;;;14.40;58.50;;;10.33;100.00;95624.94;4969067;28;20008;-52
2022/09/12 00:29:20;;;;;;;;;;;14.40;58.50;;;10.31;99.42;95624.38;4974255;28;19933;-49
2022/09/12 00:31:52;;;;;;;;;;;14.40;58.50;;;10.23;98.50;95625.66;4958266;28;20437;-48
2022/09/12 00:34:17;;;;;;;;;;;14.40;58.40;;;10.13;98.09;95623.78;4973160;28;19914;-50
2022/09/12 00:36:44;;;;;;;;;;;14.40;58.40;;;10.05;98.90;95613.63;4974233;28;19909;-52
2022/09/12 00:39:15;;;;;;;;;;;14.40;58.40;;;10.01;98.98;95614.41;4978869;28;19918;-49
2022/09/12 00:41:44;;;;;;;;;;;14.30;58.40;;;9.93;99.30;95611.19;4974124;28;19975;-48
2022/09/12 00:44:37;;;;;;;;;;;14.20;58.40;;;9.92;100.00;95604.25;4983102;28;19940;-51
2022/09/12 00:47:35;;;;;;;;;;;14.20;58.50;;;9.92;100.00;95601.59;4974093;28;20284;-48
2022/09/12 00:50:14;;;;;;;;;;;14.10;58.60;;;9.83;100.00;95597.03;4948204;28;20434;-48
2022/09/12 00:53:01;;;;;;;;;;;14.10;58.70;;;9.74;100.00;95602.03;4960225;28;19910;-50
2022/09/12 00:55:48;;;;;;;;;;;14.00;58.70;;;9.76;100.00;95597.25;4968653;28;19917;-52
2022/09/12 00:58:27;;;;;;;;;;;14.00;58.90;;;9.77;100.00;95590.88;4966059;28;19910;-50
2022/09/12 01:00:53;;;;;;;;;;;14.00;59.00;;;9.78;100.00;95597.81;4956926;28;20381;-50
2022/09/12 01:03:25;;;;;;;;;;;14.00;59.10;;;9.83;100.00;95597.03;4981460;28;19953;-51
2022/09/12 01:06:06;;;;;;;;;;;14.00;59.30;;;9.87;100.00;95590.13;4956425;28;19920;-49
2022/09/12 01:08:36;;;;;;;;;;;14.00;59.40;;;9.90;100.00;95595.75;4951937;28;19917;-48
2022/09/12 01:11:04;;;;;;;;;;;14.00;59.40;;;9.91;100.00;95589.34;4956392;28;19917;-50
2022/09/12 01:13:34;;;;;;;;;;;14.00;59.50;;;9.92;100.00;95587.50;4976023;28;19913;-48
2022/09/12 01:16:06;;;;;;;;;;;14.10;59.60;;;9.91;100.00;95592.00;4940302;28;19910;-46
2022/09/12 01:18:58;;;;;;;;;;;14.10;59.60;;;9.94;100.00;95590.69;4936041;28;19913;-48
2022/09/12 01:22:20;;;;;;;;;;;14.10;59.60;;;9.99;100.00;95584.59;4963221;28;19914;-51
2022/09/12 01:25:17;;;;;;;;;;;14.10;59.70;;;9.99;100.00;95585.38;4971072;28;19910;-46
2022/09/12 01:28:29;;;;;;;;;;;14.10;59.70;;;10.03;100.00;95583.81;4973385;28;19909;-53
2022/09/12 01:31:19;;;;;;;;;;;14.10;59.90;;;10.05;100.00;95580.88;4955352;28;19914;-47
2022/09/12 01:33:51;;;;;;;;;;;14.10;59.90;;;10.05;100.00;95571.03;4973151;28;20331;-49
2022/09/12 01:36:50;;;;;;;;;;;14.10;60.00;;;10.04;100.00;95569.44;4973277;28;20003;-48
2022/09/12 01:39:51;;;;;;;;;;;14.20;60.00;;;10.04;100.00;95566.78;4972428;28;19920;-49
2022/09/12 01:42:45;;;;;;;;;;;14.20;60.10;;;10.05;100.00;95572.91;4966717;28;20012;-50
2022/09/12 01:45:31;;;;;;;;;;;14.20;60.10;;;10.03;100.00;95561.72;4963046;28;19975;-48
2022/09/12 01:48:19;;;;;;;;;;;14.20;60.10;;;10.03;100.00;95562.53;4958951;28;20679;-48
2022/09/12 01:51:22;;;;;;;;;;;14.20;60.10;;;10.03;100.00;95561.72;4955928;28;19917;-50
2022/09/12 01:54:02;;;;;;;;;;;14.20;60.20;;;10.02;100.00;95557.44;4966480;28;20008;-53
2022/09/12 01:56:37;;;;;;;;;;;14.20;60.30;;;10.03;100.00;95564.38;4996577;23;19921;-49
2022/09/12 01:59:04;;;;;;;;;;;14.20;60.30;;;10.07;100.00;95560.94;4986522;28;19918;-50
2022/09/12 02:02:20;;;;;;;;;;;14.20;60.40;;;10.06;100.00;95563.84;5010240;28;20011;-46
2022/09/12 02:05:28;;;;;;;;;;;14.20;60.40;;;10.00;100.00;95571.03;4973572;28;19967;-48
2022/09/12 02:08:26;;;;;;;;;;;14.20;60.40;;;9.96;100.00;95561.94;4978325;28;20006;-48
2022/09/12 02:11:00;;;;;;;;;;;14.20;60.40;;;9.93;100.00;95559.81;4991155;28;19909;-48
2022/09/12 02:13:54;;;;;;;;;;;14.10;60.40;;;9.88;100.00;95557.16;4974011;28;19945;-49
2022/09/12 02:16:52;;;;;;;;;;;14.10;61.20;;;9.82;100.00;95566.16;4980869;28;19909;-48
2022/09/12 02:19:23;;;;;;;;;;;14.10;60.40;;;9.72;100.00;95564.25;4966203;28;20423;-51
2022/09/12 02:22:01;;;;;;;;;;;14.00;60.30;;;9.63;100.00;95557.84;4973644;28;19960;-50
2022/09/12 02:24:40;;;;;;;;;;;14.00;60.30;;;9.57;99.77;95561.53;4974623;28;19914;-50
2022/09/12 02:27:43;;;;;;;;;;;13.90;60.30;;;9.47;100.00;95555.09;4973727;28;19909;-47
2022/09/12 02:30:13;;;;;;;;;;;13.90;60.30;;;9.45;100.00;95551.88;4991392;28;19917;-47
2022/09/12 02:33:22;;;;;;;;;;;13.80;60.40;;;9.48;100.00;95548.72;4973520;28;20459;-48
2022/09/12 02:35:56;;;;;;;;;;;13.80;60.60;;;9.53;100.00;95553.28;4991409;28;19915;-49
2022/09/12 02:38:45;;;;;;;;;;;13.80;60.80;;;9.61;100.00;95560.75;4969511;28;20295;-48
2022/09/12 02:41:19;;;;;;;;;;;13.80;61.20;;;9.62;100.00;95551.72;4971123;28;19913;-47
2022/09/12 02:43:47;;;;;;;;;;;13.70;61.20;;;9.57;100.00;95546.38;4960026;28;19931;-46
2022/09/12 02:46:40;;;;;;;;;;;13.80;61.20;;;9.53;100.00;95544.47;4957946;28;19909;-46
2022/09/12 02:49:06;;;;;;;;;;;13.80;61.20;;;9.52;100.00;95542.88;4974214;28;19937;-47
2022/09/12 02:51:35;;;;;;;;;;;13.80;61.20;;;9.50;100.00;95545.81;4989148;28;20287;-47
2022/09/12 02:54:02;;;;;;;;;;;13.70;61.20;;;9.40;100.00;95549.22;4974391;28;19914;-45
2022/09/12 02:56:31;;;;;;;;;;;13.70;61.10;;;9.34;100.00;95547.59;4977521;28;19925;-50
2022/09/12 02:59:23;;;;;;;;;;;13.70;61.10;;;9.27;100.00;95544.34;4973868;28;19913;-45
2022/09/12 03:02:50;;;;;;;;;;;13.70;61.10;;;9.19;100.00;95539.50;4975282;28;19952;-48
2022/09/12 03:05:46;;;;;;;;;;;13.60;61.10;;;9.09;100.00;95540.25;4955148;28;20332;-47
2022/09/12 03:08:36;;;;;;;;;;;13.50;61.10;;;9.11;100.00;95545.28;4963657;28;20289;-47
2022/09/12 03:11:14;;;;;;;;;;;13.50;61.20;;;9.09;100.00;95544.75;4988668;28;19916;-49
2022/09/12 03:13:58;;;;;;;;;;;13.40;61.20;;;9.01;100.00;95543.38;4990248;28;19909;-50
2022/09/12 03:17:00;;;;;;;;;;;13.40;62.00;;;8.93;100.00;95538.53;4974777;28;19946;-48
2022/09/12 03:19:41;;;;;;;;;;;13.30;61.30;;;8.86;100.00;95537.94;4975513;28;19918;-45
2022/09/12 03:22:14;;;;;;;;;;;13.20;62.10;;;8.80;100.00;95545.06;4969274;28;19910;-48
2022/09/12 03:25:05;;;;;;;;;;;13.20;61.40;;;8.75;100.00;95540.53;4938789;28;20333;-47
2022/09/12 03:27:42;;;;;;;;;;;13.20;61.50;;;8.72;100.00;95543.69;4965443;28;19952;-43
2022/09/12 03:30:11;;;;;;;;;;;13.10;61.50;;;8.69;100.00;95543.41;4954250;28;26861;-44
2022/09/12 03:32:44;;;;;;;;;;;13.10;61.50;;;8.63;100.00;95555.03;4965702;28;20292;-45
2022/09/12 03:35:21;;;;;;;;;;;13.10;61.60;;;8.57;100.00;95549.66;4990748;28;19920;-45
2022/09/12 03:37:50;;;;;;;;;;;13.00;61.50;;;8.56;100.00;95545.41;4982995;28;19964;-47
2022/09/12 03:40:15;;;;;;;;;;;13.00;61.60;;;8.56;100.00;95558.69;4961076;28;20451;-44
2022/09/12 03:42:47;;;;;;;;;;;13.00;61.70;;;8.60;100.00;95552.88;4990625;28;19917;-44
2022/09/12 03:45:22;;;;;;;;;;;12.90;61.70;;;8.59;100.00;95546.78;4972705;28;20501;-44
2022/09/12 03:47:48;;;;;;;;;;;12.90;61.80;;;8.54;100.00;95550.16;4939346;28;21705;-48
2022/09/12 03:50:13;;;;;;;;;;;12.90;61.80;;;8.53;100.00;95558.41;4962685;28;19947;-44
2022/09/12 03:52:39;;;;;;;;;;;12.80;61.80;;;8.52;100.00;95549.66;4971193;28;19944;-46
2022/09/12 03:55:06;;;;;;;;;;;12.80;61.90;;;8.50;100.00;95546.44;4958277;28;19917;-46
2022/09/12 03:57:31;;;;;;;;;;;12.80;62.00;;;8.53;100.00;95545.13;4967365;28;20288;-44
2022/09/12 03:59:57;;;;;;;;;;;12.80;62.10;;;8.53;100.00;95542.47;4970023;28;19913;-45
2022/09/12 04:02:23;;;;;;;;;;;12.80;62.10;;;8.48;100.00;95539.75;4968797;28;19910;-46
2022/09/12 04:04:49;;;;;;;;;;;12.80;62.10;;;8.50;100.00;95543.78;4971343;28;19916;-46
2022/09/12 04:07:23;;;;;;;;;;;12.70;62.20;;;8.48;100.00;95539.75;4967453;28;20004;-44
2022/09/12 04:09:49;;;;;;;;;;;12.70;62.20;;;8.43;100.00;95545.00;4972574;28;19913;-46
2022/09/12 04:12:19;;;;;;;;;;;12.70;62.20;;;8.37;100.00;95545.97;4974199;28;20415;-45
2022/09/12 04:14:48;;;;;;;;;;;12.70;62.30;;;8.34;100.00;95550.75;4962156;28;19981;-49
2022/09/12 04:17:17;;;;;;;;;;;12.70;62.30;;;8.30;100.00;95549.66;4938199;28;19910;-48
2022/09/12 04:19:43;;;;;;;;;;;12.60;62.30;;;8.29;100.00;95553.34;4958591;28;19913;-48
2022/09/12 04:22:09;;;;;;;;;;;12.60;62.30;;;8.31;100.00;95556.56;4955596;28;19914;-47
2022/09/12 04:24:34;;;;;;;;;;;12.60;62.40;;;8.34;100.00;95555.28;4954920;28;19910;-48
2022/09/12 04:27:06;;;;;;;;;;;12.60;62.50;;;8.30;100.00;95556.81;4968876;28;20347;-46
2022/09/12 04:29:41;;;;;;;;;;;12.60;62.50;;;8.22;100.00;95560.72;4972975;28;19937;-45
2022/09/12 04:32:09;;;;;;;;;;;12.60;62.50;;;8.15;100.00;95556.66;4987401;28;20403;-47
2022/09/12 04:34:38;;;;;;;;;;;12.50;62.50;;;8.19;100.00;95560.44;4972815;28;20115;-51
2022/09/12 04:37:04;;;;;;;;;;;12.50;62.50;;;8.23;100.00;95553.56;4972530;28;19960;-48
2022/09/12 04:39:33;;;;;;;;;;;12.50;62.70;;;8.23;100.00;95554.34;4957950;28;19914;-42
2022/09/12 04:42:03;;;;;;;;;;;12.50;62.80;;;8.20;100.00;95556.72;4954408;28;19910;-48
2022/09/12 04:44:34;;;;;;;;;;;12.50;62.80;;;8.17;100.00;95557.22;4948491;28;19910;-50
2022/09/12 04:47:06;;;;;;;;;;;12.50;62.80;;;8.11;100.00;95554.50;4973018;28;19928;-47
2022/09/12 04:49:35;;;;;;;;;;;12.50;62.90;;;8.08;100.00;95551.53;4971905;28;19996;-47
2022/09/12 04:52:18;;;;;;;;;;;12.40;62.80;;;8.07;100.00;95556.06;4973709;28;20285;-46
2022/09/12 04:54:47;;;;;;;;;;;12.40;62.90;;;8.03;100.00;95554.94;4961893;28;19913;-50
2022/09/12 04:57:16;;;;;;;;;;;12.40;62.90;;;8.00;100.00;95555.44;4992504;28;19961;-48
2022/09/12 04:59:47;;;;;;;;;;;12.40;62.90;;;8.00;100.00;95550.16;4993058;28;20380;-45
2022/09/12 05:02:16;;;;;;;;;;;12.40;63.00;;;8.02;100.00;95547.22;4987904;28;19921;-49
2022/09/12 05:04:45;;;;;;;;;;;12.40;63.00;;;8.05;100.00;95555.50;4985601;28;19917;-47
2022/09/12 05:07:18;;;;;;;;;;;12.40;63.10;;;8.06;100.00;95558.97;4975655;28;20006;-49
2022/09/12 05:09:44;;;;;;;;;;;12.40;63.20;;;8.07;100.00;95553.41;4970072;28;19932;-48
2022/09/12 05:12:13;;;;;;;;;;;12.40;63.30;;;8.15;100.00;95565.44;4977631;28;19909;-48
2022/09/12 05:14:44;;;;;;;;;;;12.40;63.30;;;8.20;100.00;95565.47;4963173;28;19910;-47
2022/09/12 05:17:16;;;;;;;;;;;12.50;63.50;;;8.28;100.00;95564.25;4963741;28;19917;-52
2022/09/12 05:19:41;;;;;;;;;;;12.60;63.90;;;8.32;100.00;95560.03;4981347;28;19925;-50
2022/09/12 05:22:08;;;;;;;;;;;12.60;63.50;;;8.39;100.00;95567.81;4984412;28;20331;-48
2022/09/12 05:24:34;;;;;;;;;;;12.60;63.50;;;8.46;100.00;95560.44;4955916;28;20332;-49
2022/09/12 05:27:02;;;;;;;;;;;12.70;63.60;;;8.54;100.00;95568.75;4996284;28;19953;-48
2022/09/12 05:29:31;;;;;;;;;;;12.70;63.70;;;8.61;100.00;95570.41;4972946;28;19913;-50
2022/09/12 05:31:57;;;;;;;;;;;12.80;63.80;;;8.65;100.00;95572.31;4946431;28;20021;-47
2022/09/12 05:34:26;;;;;;;;;;;12.80;63.80;;;8.71;100.00;95567.84;4992339;28;20000;-51
2022/09/12 05:36:54;;;;;;;;;;;12.90;63.80;;;8.73;100.00;95569.19;4992392;28;19917;-48
2022/09/12 05:39:20;;;;;;;;;;;13.00;63.80;;;8.77;100.00;95570.31;4968716;28;20275;-48
2022/09/12 05:41:53;;;;;;;;;;;13.00;63.80;;;8.82;100.00;95566.88;4972383;28;20000;-46
2022/09/12 05:44:21;;;;;;;;;;;13.10;63.80;;;8.83;100.00;95562.34;4965312;28;19909;-46
2022/09/12 05:46:50;;;;;;;;;;;13.10;63.70;;;8.84;100.00;95566.59;4974707;28;19913;-47
2022/09/12 05:49:15;;;;;;;;;;;13.20;63.70;;;8.89;100.00;95574.63;4991340;28;19913;-46
2022/09/12 05:51:44;;;;;;;;;;;13.20;63.60;;;8.97;100.00;95579.50;4991652;28;20000;-46
2022/09/12 05:54:13;;;;;;;;;;;13.30;63.70;;;9.06;100.00;95577.13;4975049;28;20027;-46
2022/09/12 05:56:43;;;;;;;;;;;13.40;63.70;;;9.15;100.00;95588.91;4968243;28;20270;-47
2022/09/12 05:59:19;;;;;;;;;;;13.50;63.80;;;9.22;100.00;95584.97;4968992;28;19949;-49
2022/09/12 06:01:47;;;;;;;;;;;13.60;63.70;;;9.28;100.00;95593.78;4959692;28;20016;-49
2022/09/12 06:04:13;;;;;;;;;;;13.60;63.70;;;9.33;100.00;95591.16;4972785;28;20295;-45
2022/09/12 06:06:45;;;;;;;;;;;13.70;63.70;;;9.41;100.00;95593.34;4972798;28;20312;-47
2022/09/12 06:09:13;;;;;;;;;;;13.80;63.80;;;9.50;100.00;95593.66;4962903;28;20182;-48
2022/09/12 06:11:46;;;;;;;;;;;13.80;63.80;;;9.61;100.00;95597.97;4961054;28;19964;-47
2022/09/12 06:14:15;;;;;;;;;;;14.00;63.80;;;9.73;100.00;95597.78;4943031;28;20399;-42
2022/09/12 06:16:46;;;;;;;;;;;14.20;63.70;;;9.82;100.00;95592.78;4951821;28;19918;-46
2022/09/12 06:19:19;;;;;;;;;;;14.30;63.60;;;9.88;100.00;95595.19;4987209;28;20372;-46
2022/09/12 06:21:48;;;;;;;;;;;14.40;63.50;;;9.98;100.00;95593.63;4958102;28;19910;-47
2022/09/12 06:24:21;;;;;;;;;;;14.50;63.50;;;10.17;100.00;95592.09;4953034;28;19993;-46
2022/09/12 06:26:52;;;;;;;;;;;14.80;63.30;;;10.56;100.00;95595.19;4969600;28;20289;-48
2022/09/12 06:29:18;;;;;;;;;;;15.10;63.20;;;10.97;100.00;95599.72;4962072;28;19910;-49
2022/09/12 06:31:47;;;;;;;;;;;15.60;63.20;;;11.44;100.00;95594.13;4937893;28;19909;-49
2022/09/12 06:34:21;;;;;;;;;;;16.10;63.30;;;11.90;100.00;95591.34;4951596;28;20398;-47
2022/09/12 06:36:48;;;;;;;;;;;16.60;63.30;;;12.35;100.00;95596.81;4952602;28;19910;-50
2022/09/12 06:39:21;;;;;;;;;;;17.10;63.20;;;12.65;100.00;95596.59;4963882;28;19965;-47
2022/09/12 06:41:55;;;;;;;;;;;17.60;62.90;;;12.98;100.00;95596.94;4952048;28;19910;-45
2022/09/12 06:44:22;;;;;;;;;;;18.10;62.50;;;13.20;100.00;95593.81;4954388;28;19959;-48
2022/09/12 06:49:39;;;;;;;;;;;19.00;61.60;;;13.69;99.02;95590.16;4953854;28;19985;-47
2022/09/12 06:52:14;;;;;;;;;;;19.50;61.20;;;13.92;98.27;95595.84;4952339;28;20033;-47
2022/09/12 06:54:42;;;;;;;;;;;20.00;60.70;;;14.11;97.30;95594.78;4957457;28;19909;-51
2022/09/12 06:57:08;;;;;;;;;;;20.30;60.10;;;14.45;95.47;95601.88;4981966;28;19918;-52
2022/09/12 06:59:34;;;;;;;;;;;20.80;60.00;;;14.63;89.89;95599.50;4971621;28;19925;-48
2022/09/12 07:02:02;;;;;;;;;;;21.10;59.60;;;14.97;88.84;95596.59;4978104;28;20014;-47
2022/09/12 07:04:28;;;;;;;;;;;21.50;59.40;;;14.90;81.08;95594.28;4989817;28;20008;-50
2022/09/12 07:07:00;;;;;;;;;;;21.90;59.20;;;15.26;79.11;95594.53;4973855;28;20024;-50
2022/09/12 07:09:29;;;;;;;;;;;22.20;58.60;;;15.69;77.44;95601.63;4990215;28;20382;-48
2022/09/12 07:11:55;;;;;;;;;;;22.50;58.20;;;15.94;74.25;95606.50;4973278;28;19909;-49
2022/09/12 07:14:27;;;;;;;;;;;22.80;57.80;;;16.13;72.33;95595.66;4986372;28;20387;-51
2022/09/12 07:16:53;;;;;;;;;;;23.10;57.30;;;16.53;71.00;95604.00;4971466;28;20394;-51
2022/09/12 07:19:19;;;;;;;;;;;23.40;56.90;;;16.95;69.57;95602.03;4955475;28;20012;-47
2022/09/12 07:21:47;;;;;;;;;;;23.70;56.60;;;17.09;65.70;95600.09;4990390;28;19916;-47
2022/09/12 07:24:22;;;;;;;;;;;24.10;56.20;;;17.42;66.43;95596.34;4991043;28;19910;-48
2022/09/12 07:26:48;;;;;;;;;;;24.40;55.70;;;17.65;65.59;95599.81;4972566;28;20380;-50
2022/09/12 07:29:16;;;;;;;;;;;24.70;55.30;;;17.98;64.91;95595.69;4973490;28;19916;-50
2022/09/12 07:31:48;;;;;;;;;;;25.00;54.70;;;18.27;62.43;95600.59;4972387;28;20291;-52
2022/09/12 07:34:14;;;;;;;;;;;25.30;54.30;;;18.64;61.81;95597.63;4973571;28;19956;-49
2022/09/12 07:36:39;;;;;;;;;;;25.50;53.90;;;18.84;61.36;95601.66;4990699;28;19909;-49
2022/09/12 07:39:11;;;;;;;;;;;25.80;53.50;;;19.02;59.02;95588.97;4985916;28;20410;-47
2022/09/12 07:41:37;;;;;;;;;;;26.10;53.00;;;19.30;59.19;95594.81;4976941;28;19936;-47
2022/09/12 07:44:06;;;;;;;;;;;26.20;52.60;;;19.59;58.58;95597.63;4979793;28;19909;-49
2022/09/12 07:46:34;;;;;;;;;;;26.50;52.30;;;19.79;57.26;95596.19;4996759;28;19909;-49
2022/09/12 07:49:03;;;;;;;;;;;26.70;51.90;;;20.01;56.18;95592.44;4982135;28;19909;-53
2022/09/12 07:51:42;;;;;;;;;;;27.00;51.60;;;20.30;56.53;95593.59;4979374;28;19941;-49
2022/09/12 07:54:08;;;;;;;;;;;27.20;51.10;;;20.19;54.80;95592.38;4993032;28;19909;-48
2022/09/12 07:56:34;;;;;;;;;;;27.50;50.70;;;20.49;53.35;95585.03;5017435;23;19920;-45
2022/09/12 07:59:00;;;;;;;;;;;27.70;50.20;;;20.83;53.34;95589.47;5034652;28;19919;-45
2022/09/12 08:01:32;;;;;;;;;;;27.90;49.90;;;20.96;54.26;95593.03;5027441;28;19917;-47
2022/09/12 08:04:03;;;;;;;;;;;28.00;49.50;;;21.25;51.79;95590.25;5023311;28;20398;-47
2022/09/12 08:06:35;;;;;;;;;;;28.30;49.30;;;21.66;50.91;95590.53;5000926;28;19909;-44
2022/09/12 08:09:04;;;;;;;;;;;28.40;48.80;;;21.93;48.95;95584.47;4999046;28;19909;-48
2022/09/12 08:11:34;;;;;;;;;;;28.60;48.70;;;22.04;50.17;95581.34;4979475;28;19909;-50
2022/09/12 08:14:04;;;;;;;;;;;28.90;48.30;;;22.33;48.01;95586.56;5009023;28;19916;-48
2022/09/12 08:16:45;;;;;;;;;;;29.10;48.00;;;22.25;48.40;95587.47;4996482;28;19917;-48
2022/09/12 08:19:11;;;;;;;;;;;29.30;47.30;;;22.33;48.17;95589.28;5013055;28;20443;-48
2022/09/12 08:21:36;;;;;;;;;;;29.40;46.90;;;22.32;47.96;95584.97;4983609;28;20043;-48
2022/09/12 08:24:11;;;;;;;;;;;29.40;46.40;;;22.21;48.14;95591.97;4996074;28;19916;-48
2022/09/12 08:26:40;;;;;;;;;;;29.50;46.20;;;22.49;47.77;95591.31;5002284;28;19909;-44
2022/09/12 08:29:24;;;;;;;;;;;29.60;46.00;;;22.74;47.42;95595.56;4995847;28;20035;-49
2022/09/12 08:31:50;;;;;;;;;;;29.80;45.80;;;23.03;47.39;95596.44;5009856;28;19913;-46
2022/09/12 08:34:18;;;;;;;;;;;30.00;45.60;;;23.39;47.63;95600.97;4995875;28;19959;-48
2022/09/12 08:36:46;;;;;;;;;;;30.20;45.30;;;23.51;44.89;95597.41;5013131;28;19909;-46
2022/09/12 08:39:15;;;;;;;;;;;30.40;45.00;;;23.82;45.42;95594.00;4983738;28;19920;-47
2022/09/12 08:41:45;;;;;;;;;;;30.60;44.60;;;23.71;46.35;95599.13;4992609;28;20436;-45
2022/09/12 08:44:23;;;;;;;;;;;30.80;44.50;;;24.05;46.41;95590.66;4995599;28;19964;-50
2022/09/12 08:47:07;;;;;;;;;;;30.90;44.30;;;24.13;45.39;95595.94;4988576;28;19913;-50
2022/09/12 08:50:03;;;;;;;;;;;31.10;44.00;;;24.09;44.80;95599.69;5009053;28;20002;-47
2022/09/12 08:52:51;;;;;;;;;;;31.30;43.60;;;24.30;44.98;95594.78;4988242;28;19909;-46
2022/09/12 08:55:26;;;;;;;;;;;31.50;43.40;;;24.54;44.81;95601.19;4983892;28;19917;-49
2022/09/12 08:58:06;;;;;;;;;;;31.70;43.20;;;24.62;43.46;95595.56;5011080;28;19979;-49
2022/09/12 09:01:22;;;;;;;;;;;31.90;42.90;;;24.79;43.72;95599.84;4995404;28;19940;-49
2022/09/12 09:04:31;;;;;;;;;;;32.20;42.60;;;25.21;43.57;95592.97;4990497;28;19920;-49
2022/09/12 09:08:02;;;;;;;;;;;32.50;42.30;;;25.27;42.73;95596.97;5012634;28;20000;-47
2022/09/12 09:11:06;;;;;;;;;;;32.70;41.60;;;25.41;42.83;95589.06;4966960;28;20455;-49
2022/09/12 09:16:48;;;;;;;;;;;33.10;41.00;;;26.13;40.70;95593.91;5012578;28;20004;-47
2022/09/12 09:19:46;;;;;;;;;;;33.30;40.60;;;26.36;40.84;95587.69;4982137;28;19913;-45
2022/09/12 09:23:00;;;;;;;;;;;33.50;40.40;;;26.11;41.33;95585.31;4994321;28;20039;-46
2022/09/12 09:26:07;;;;;;;;;;;33.60;40.10;;;26.23;41.50;95584.31;4970615;28;19919;-49
2022/09/12 09:28:46;;;;;;;;;;;33.70;39.80;;;26.42;41.26;95589.72;5008047;28;20022;-46
2022/09/12 09:31:25;;;;;;;;;;;33.80;39.70;;;26.47;40.27;95594.06;4972524;28;20279;-47
2022/09/12 09:33:54;;;;;;;;;;;33.90;39.40;;;26.46;40.03;95592.50;4990287;28;19920;-46
2022/09/12 09:36:57;;;;;;;;;;;33.80;39.10;;;26.69;40.56;95590.53;4975371;28;20356;-44
2022/09/12 09:39:54;;;;;;;;;;;33.90;39.00;;;26.81;38.51;95586.81;4949020;28;19917;-46
2022/09/12 09:42:54;;;;;;;;;;;34.00;38.80;;;26.83;38.82;95576.31;4963025;28;19968;-46
2022/09/12 09:45:24;;;;;;;;;;;34.10;38.70;;;26.81;39.40;95581.34;5001717;28;19909;-45
2022/09/12 09:48:30;;;;;;;;;;;34.20;38.40;;;27.07;39.57;95580.50;5008018;28;19948;-45
2022/09/12 09:51:03;;;;;;;;;;;34.40;38.20;;;26.95;40.03;95575.28;4955795;28;20378;-45
2022/09/12 09:53:49;;;;;;;;;;;34.60;38.00;;;27.20;37.70;95578.34;4970410;28;19970;-45
2022/09/12 09:56:41;;;;;;;;;;;34.80;37.70;;;27.18;39.15;95573.28;4996997;28;19944;-46
2022/09/12 09:59:32;;;;;;;;;;;34.90;37.40;;;27.44;36.74;95574.34;4982688;28;20027;-45
2022/09/12 10:02:13;;;;;;;;;;;34.90;37.40;;;27.05;39.03;95571.91;4985198;28;20386;-45
2022/09/12 10:05:16;;;;;;;;;;;34.80;37.40;;;26.45;38.85;95575.34;4988354;28;19913;-49
2022/09/12 10:07:50;;;;;;;;;;;34.80;37.10;;;26.41;39.53;95569.00;4967600;28;19910;-49
2022/09/12 10:10:21;;;;;;;;;;;34.70;36.90;;;26.87;38.93;95573.63;4965361;28;19960;-46
2022/09/12 10:12:47;;;;;;;;;;;34.70;36.80;;;26.90;39.08;95567.41;4982426;28;20390;-46
2022/09/12 10:15:25;;;;;;;;;;;34.80;36.80;;;26.69;39.35;95565.16;4984029;28;19910;-48
2022/09/12 10:17:55;;;;;;;;;;;34.90;36.60;;;27.14;37.82;95568.91;4960354;28;19910;-45
2022/09/12 10:20:43;;;;;;;;;;;35.00;36.40;;;27.70;37.63;95567.97;4982281;28;20465;-48
2022/09/12 10:23:17;;;;;;;;;;;35.20;36.30;;;27.95;36.20;95570.22;4963261;28;19921;-46
2022/09/12 10:26:00;;;;;;;;;;;35.30;36.20;;;27.96;36.75;95572.59;4987093;28;19916;-45
2022/09/12 10:28:46;;;;;;;;;;;35.40;35.90;;;28.12;37.00;95569.59;4972980;28;20012;-45
2022/09/12 10:31:41;;;;;;;;;;;35.60;35.80;;;27.80;37.36;95563.84;4960778;28;19910;-49
2022/09/12 10:34:24;;;;;;;;;;;35.60;35.60;;;27.99;38.11;95560.09;4976979;28;20395;-47
2022/09/12 10:36:59;;;;;;;;;;;35.60;35.50;;;28.12;38.98;95559.41;4985335;28;19923;-45
2022/09/12 10:39:25;;;;;;;;;;;35.60;35.60;;;28.09;37.12;95556.66;4985604;28;19917;-47
2022/09/12 10:41:51;;;;;;;;;;;35.60;35.50;;;27.91;38.18;95553.75;4985204;28;20285;-45
2022/09/12 10:44:51;;;;;;;;;;;35.70;35.40;;;27.96;38.11;95552.63;4976705;28;19955;-45
2022/09/12 10:47:30;;;;;;;;;;;35.80;35.40;;;28.38;36.83;95555.72;4990055;28;19909;-45
2022/09/12 10:50:35;;;;;;;;;;;36.00;35.20;;;28.56;37.78;95549.59;4972337;28;20379;-45
2022/09/12 10:53:40;;;;;;;;;;;36.20;35.00;;;28.76;37.72;95553.63;4972008;28;19910;-45
2022/09/12 10:56:27;;;;;;;;;;;36.40;34.90;;;29.12;36.56;95553.88;4979421;28;19925;-47
2022/09/12 10:59:36;;;;;;;;;;;36.60;34.70;;;29.18;35.59;95551.53;4970617;28;20323;-50
2022/09/12 11:02:46;;;;;;;;;;;36.60;34.40;;;28.93;36.80;95557.66;4969257;28;19909;-46
2022/09/12 11:05:36;;;;;;;;;;;36.60;34.40;;;29.10;37.56;95549.94;4971740;28;19910;-45
2022/09/12 11:08:21;;;;;;;;;;;36.60;34.50;;;29.41;37.01;95552.00;4959418;28;19960;-47
2022/09/12 11:11:27;;;;;;;;;;;36.70;34.50;;;29.26;34.87;95540.19;4953801;28;20000;-47
2022/09/12 11:14:18;;;;;;;;;;;37.00;34.30;;;29.54;34.70;95535.97;4938140;28;19949;-46
2022/09/12 11:17:20;;;;;;;;;;;37.10;34.00;;;29.79;34.63;95535.25;4966215;28;19952;-46
2022/09/12 11:20:19;;;;;;;;;;;37.40;34.00;;;30.20;34.85;95533.75;4953464;28;20401;-47
2022/09/12 11:22:59;;;;;;;;;;;37.60;33.70;;;30.11;34.73;95532.53;4942208;28;19969;-45
2022/09/12 11:25:46;;;;;;;;;;;37.90;33.60;;;30.39;34.45;95529.81;4955953;28;19914;-45
2022/09/12 11:28:18;;;;;;;;;;;38.40;33.40;;;30.78;33.09;95526.25;4955595;28;19914;-45
2022/09/12 11:31:37;;;;;;;;;;;38.70;33.20;;;30.73;31.23;95531.31;4956310;28;19916;-45
2022/09/12 11:34:09;;;;;;;;;;;38.90;32.80;;;30.73;32.42;95525.84;4938411;28;19910;-46
2022/09/12 11:36:58;;;;;;;;;;;39.10;32.50;;;30.53;32.17;95520.00;4968108;28;19917;-46
2022/09/12 11:39:47;;;;;;;;;;;39.20;32.20;;;30.75;33.36;95520.72;4962789;28;19921;-46
2022/09/12 11:42:28;;;;;;;;;;;39.30;32.00;;;30.55;31.51;95512.13;4951655;28;19917;-47
2022/09/12 11:45:25;;;;;;;;;;;39.40;31.80;;;30.62;33.31;95518.41;4952003;28;19910;-47
2022/09/12 11:48:00;;;;;;;;;;;39.40;31.70;;;30.77;32.37;95523.84;4956112;28;19910;-48
2022/09/12 11:50:30;;;;;;;;;;;39.60;31.70;;;30.87;32.22;95517.59;4956132;28;19914;-45
2022/09/12 11:53:33;;;;;;;;;;;39.60;31.50;;;30.67;33.04;95517.97;4957633;28;19910;-46
2022/09/12 11:56:18;;;;;;;;;;;39.80;31.10;;;30.66;32.39;95518.38;4938448;28;19921;-45
2022/09/12 11:58:57;;;;;;;;;;;39.80;30.70;;;30.84;32.12;95508.16;4986421;28;19917;-47
2022/09/12 12:01:43;;;;;;;;;;;39.80;30.70;;;31.08;31.95;95508.44;4989792;28;20392;-45
2022/09/12 12:04:20;;;;;;;;;;;39.80;30.80;;;30.89;31.74;95509.69;4988716;28;19910;-49
2022/09/12 12:07:12;;;;;;;;;;;39.90;30.80;;;30.56;32.26;95510.97;4982672;28;19916;-50
2022/09/12 12:09:52;;;;;;;;;;;40.00;30.70;;;30.56;32.62;95506.25;4988244;28;19916;-48
2022/09/12 12:12:30;;;;;;;;;;;40.10;30.50;;;30.53;33.23;95500.75;4970639;28;19909;-51